createdAt,value
2019-03-13T00:04:49.062Z,85.67
2019-03-13T00:07:30.092Z,85.87
2019-03-13T00:09:59.620Z,85.68
2019-03-13T00:12:29.199Z,85.62
2019-03-13T00:14:58.623Z,85.77
2019-03-13T00:17:28.141Z,85.87
2019-03-13T00:19:57.704Z,85.96
2019-03-13T00:22:30.334Z,85.77
2019-03-13T00:24:59.867Z,85.73
2019-03-13T00:27:29.317Z,85.56
2019-03-13T00:30:01.130Z,85.49
2019-03-13T00:32:30.757Z,85.61
2019-03-13T00:35:19.687Z,85.81
2019-03-13T00:37:49.230Z,85.45
2019-03-13T00:40:18.633Z,85.43
2019-03-13T00:42:48.113Z,85.58
2019-03-13T00:45:17.490Z,85.65
2019-03-13T00:47:46.892Z,85.77
2019-03-13T00:50:35.376Z,85.58
2019-03-13T00:53:04.793Z,86.05
2019-03-13T00:55:34.249Z,86.06
2019-03-13T01:01:00.317Z,86.24
2019-03-13T01:03:48.752Z,86.07
2019-03-13T01:06:41.082Z,86.05
2019-03-13T01:09:24.138Z,86.15
2019-03-13T01:11:53.622Z,86.10
2019-03-13T01:14:23.193Z,86.14
2019-03-13T01:16:52.636Z,86.19
2019-03-13T01:22:10.493Z,86.02
2019-03-13T01:24:42.991Z,85.96
2019-03-13T01:27:31.456Z,85.93
2019-03-13T01:30:00.992Z,86.10
2019-03-13T01:32:45.691Z,86.00
2019-03-13T01:35:33.980Z,85.99
2019-03-13T01:40:45.485Z,86.03
2019-03-13T01:43:25.991Z,85.95
2019-03-13T01:45:55.379Z,86.00
2019-03-13T01:48:26.481Z,86.10
2019-03-13T01:50:55.883Z,86.28
2019-03-13T01:56:19.268Z,86.36
2019-03-13T01:58:48.864Z,86.34
2019-03-13T02:01:18.244Z,86.35
2019-03-13T02:03:47.738Z,86.28
2019-03-13T02:06:36.101Z,86.43
2019-03-13T02:09:07.805Z,86.52
2019-03-13T02:11:37.313Z,86.38
2019-03-13T02:14:07.083Z,86.37
2019-03-13T02:16:36.441Z,86.66
2019-03-13T02:19:05.829Z,86.53
2019-03-13T02:21:35.282Z,86.63
2019-03-13T02:24:05.277Z,86.43
2019-03-13T02:26:34.703Z,86.52
2019-03-13T02:29:04.312Z,86.20
2019-03-13T02:31:33.675Z,86.21
2019-03-13T02:34:25.858Z,86.21
2019-03-13T02:39:48.197Z,86.16
2019-03-13T02:42:17.668Z,86.12
2019-03-13T02:44:47.012Z,86.12
2019-03-13T02:47:19.075Z,86.26
2019-03-13T02:49:59.944Z,86.35
2019-03-13T02:52:29.391Z,86.39
2019-03-13T02:55:21.459Z,86.49
2019-03-13T02:58:09.741Z,86.65
2019-03-13T03:00:58.205Z,86.98
2019-03-13T03:03:46.598Z,86.99
2019-03-13T03:06:35.006Z,87.00
2019-03-13T03:09:07.817Z,86.96
2019-03-13T03:11:37.569Z,86.95
2019-03-13T03:14:06.985Z,86.89
2019-03-13T03:16:36.423Z,86.84
2019-03-13T03:19:05.848Z,86.83
2019-03-13T03:21:35.230Z,86.96
2019-03-13T03:24:04.958Z,86.82
2019-03-13T03:26:35.552Z,86.93
2019-03-13T03:29:04.936Z,87.05
2019-03-13T03:31:34.447Z,86.99
2019-03-13T03:34:04.601Z,86.99
2019-03-13T03:36:34.016Z,86.95
2019-03-13T03:39:23.840Z,87.02
2019-03-13T03:41:53.416Z,86.84
2019-03-13T03:44:25.469Z,86.70
2019-03-13T03:46:56.543Z,86.58
2019-03-13T03:49:26.030Z,86.47
2019-03-13T03:52:06.860Z,86.52
2019-03-13T03:54:36.444Z,86.52
2019-03-13T03:57:05.844Z,86.63
2019-03-13T04:02:10.457Z,86.62
2019-03-13T04:04:50.919Z,86.67
2019-03-13T04:09:56.109Z,86.64
2019-03-13T04:12:25.484Z,86.73
2019-03-13T04:14:57.040Z,86.77
2019-03-13T04:17:26.439Z,86.56
2019-03-13T04:19:55.848Z,86.61
2019-03-13T04:22:44.432Z,86.73
2019-03-13T04:25:33.944Z,86.76
2019-03-13T04:28:03.617Z,86.77
2019-03-13T04:30:54.842Z,86.75
2019-03-13T04:33:43.291Z,86.68
2019-03-13T04:36:12.787Z,86.70
2019-03-13T04:38:49.025Z,86.81
2019-03-13T04:41:37.389Z,86.92
2019-03-13T04:44:06.869Z,87.01
2019-03-13T04:46:36.293Z,87.06
2019-03-13T04:49:05.768Z,87.06
2019-03-13T04:51:48.514Z,87.23
2019-03-13T04:54:06.418Z,87.33
2019-03-13T04:56:35.878Z,87.37
2019-03-13T04:59:05.374Z,87.49
2019-03-13T05:01:34.787Z,87.46
2019-03-13T05:04:04.392Z,87.23
2019-03-13T05:06:45.321Z,87.32
2019-03-13T05:09:35.098Z,87.31
2019-03-13T05:14:53.152Z,87.27
2019-03-13T05:17:22.553Z,87.38
2019-03-13T05:19:52.601Z,87.44
2019-03-13T05:22:22.232Z,87.49
2019-03-13T05:24:52.297Z,87.38
2019-03-13T05:27:21.789Z,87.31
2019-03-13T05:29:51.148Z,87.31
2019-03-13T05:32:20.618Z,87.27
2019-03-13T05:34:50.011Z,87.21
2019-03-13T05:37:19.429Z,87.25
2019-03-13T05:42:24.326Z,87.04
2019-03-13T05:44:53.917Z,87.13
2019-03-13T05:47:23.420Z,87.13
2019-03-13T05:49:52.902Z,87.01
2019-03-13T05:52:22.416Z,86.95
2019-03-13T05:54:51.992Z,86.96
2019-03-13T05:57:21.476Z,87.01
2019-03-13T05:59:50.890Z,86.95
2019-03-13T06:02:20.449Z,86.89
2019-03-13T06:04:49.808Z,86.85
2019-03-13T06:07:20.559Z,86.90
2019-03-13T06:09:50.050Z,86.85
2019-03-13T06:12:19.465Z,86.74
2019-03-13T06:14:48.945Z,86.57
2019-03-13T06:17:18.472Z,86.36
2019-03-13T06:19:47.853Z,86.26
2019-03-13T06:22:17.575Z,86.29
2019-03-13T06:24:46.944Z,86.32
2019-03-13T06:27:16.397Z,86.24
2019-03-13T06:32:21.243Z,86.07
2019-03-13T06:37:35.875Z,86.09
2019-03-13T06:40:25.949Z,86.35
2019-03-13T06:42:55.466Z,86.07
2019-03-13T06:45:25.467Z,86.02
2019-03-13T06:47:54.949Z,86.06
2019-03-13T06:50:29.414Z,85.94
2019-03-13T06:52:59.019Z,85.95
2019-03-13T06:55:28.469Z,85.99
2019-03-13T06:58:00.302Z,86.00
2019-03-13T07:00:48.825Z,85.83
2019-03-13T07:06:20.225Z,85.80
2019-03-13T07:09:22.033Z,85.64
2019-03-13T07:12:10.457Z,85.39
2019-03-13T07:14:58.790Z,85.17
2019-03-13T07:21:02.003Z,84.72
2019-03-13T07:23:50.304Z,84.90
2019-03-13T07:26:38.756Z,85.02
2019-03-13T07:29:27.123Z,84.68
2019-03-13T07:32:15.737Z,84.85
2019-03-13T07:35:22.226Z,84.85
2019-03-13T07:38:10.823Z,85.08
2019-03-13T07:40:59.304Z,84.87
2019-03-13T07:43:47.650Z,84.48
2019-03-13T07:46:35.943Z,84.48
2019-03-13T07:49:24.242Z,84.45
2019-03-13T07:52:32.971Z,84.58
2019-03-13T07:55:27.405Z,84.58
2019-03-13T07:58:15.718Z,84.47
2019-03-13T08:01:04.607Z,84.52
2019-03-13T08:03:53.286Z,84.27
2019-03-13T08:06:50.690Z,84.17
2019-03-13T08:09:50.483Z,84.13
2019-03-13T08:12:48.051Z,84.13
2019-03-13T08:18:54.169Z,83.85
2019-03-13T08:21:42.498Z,84.00
2019-03-13T08:24:31.118Z,84.04
2019-03-13T08:27:19.849Z,83.77
2019-03-13T08:30:08.200Z,83.40
2019-03-13T08:32:56.569Z,83.31
2019-03-13T08:35:45.121Z,82.83
2019-03-13T08:41:27.807Z,82.04
2019-03-13T08:44:16.070Z,81.70
2019-03-13T08:47:01.224Z,81.09
2019-03-13T08:49:49.773Z,81.16
2019-03-13T08:52:49.442Z,81.55
2019-03-13T08:55:37.714Z,81.64
2019-03-13T09:00:58.759Z,81.75
2019-03-13T09:03:47.038Z,81.51
2019-03-13T09:06:35.775Z,81.29
2019-03-13T09:09:44.762Z,81.32
2019-03-13T09:12:35.577Z,80.51
2019-03-13T09:15:24.311Z,79.69
2019-03-13T09:18:12.554Z,79.60
2019-03-13T09:26:37.290Z,79.19
2019-03-13T09:29:25.709Z,78.62
2019-03-13T09:32:14.334Z,78.54
2019-03-13T09:35:04.816Z,78.30
2019-03-13T09:37:41.859Z,78.42
2019-03-13T09:43:43.175Z,78.30
2019-03-13T09:46:31.487Z,77.92
2019-03-13T09:49:19.942Z,78.03
2019-03-13T09:51:54.181Z,77.55
2019-03-13T09:54:42.483Z,76.92
2019-03-13T09:57:31.054Z,77.26
2019-03-13T10:00:19.348Z,77.33
2019-03-13T10:03:07.959Z,77.06
2019-03-13T10:06:07.768Z,76.96
2019-03-13T10:08:56.028Z,76.80
2019-03-13T10:12:05.178Z,76.72
2019-03-13T10:14:43.553Z,76.36
2019-03-13T10:17:31.913Z,75.47
2019-03-13T10:20:26.830Z,75.45
2019-03-13T10:23:15.311Z,75.79
2019-03-13T10:29:18.379Z,74.63
2019-03-13T10:32:03.475Z,75.02
2019-03-13T10:34:51.851Z,74.09
2019-03-13T10:37:38.409Z,73.41
2019-03-13T10:40:27.285Z,72.77
2019-03-13T10:43:15.711Z,72.56
2019-03-13T10:46:04.237Z,70.83
2019-03-13T10:48:53.558Z,71.52
2019-03-13T10:51:42.683Z,71.54
2019-03-13T10:54:50.072Z,70.32
2019-03-13T10:57:46.863Z,69.89
2019-03-13T11:00:35.357Z,69.24
2019-03-13T11:03:23.865Z,69.11
2019-03-13T11:06:18.252Z,68.32
2019-03-13T11:09:21.066Z,67.76
2019-03-13T11:12:09.360Z,65.82
2019-03-13T11:14:57.831Z,65.96
2019-03-13T11:17:46.273Z,65.91
2019-03-13T11:20:23.065Z,66.13
2019-03-13T11:23:11.644Z,67.29
2019-03-13T11:26:18.932Z,66.57
2019-03-13T11:28:54.740Z,64.17
2019-03-13T11:31:45.695Z,63.97
2019-03-13T11:34:33.992Z,63.79
2019-03-13T11:37:24.496Z,64.19
2019-03-13T11:40:02.048Z,65.59
2019-03-13T11:42:50.363Z,65.95
2019-03-13T11:45:38.796Z,63.43
2019-03-13T11:48:29.600Z,62.95
2019-03-13T11:51:18.193Z,63.53
2019-03-13T11:56:49.474Z,62.50
2019-03-13T11:59:59.441Z,61.99
2019-03-13T12:02:47.903Z,62.01
2019-03-13T12:05:36.152Z,62.82
2019-03-13T12:11:39.926Z,62.49
2019-03-13T12:17:12.483Z,62.84
2019-03-13T12:19:59.256Z,63.47
2019-03-13T12:22:45.813Z,63.19
2019-03-13T12:25:34.106Z,62.84
2019-03-13T12:28:22.545Z,62.02
2019-03-13T12:31:13.887Z,61.77
2019-03-13T12:33:59.761Z,63.19
2019-03-13T12:36:48.107Z,64.20
2019-03-13T12:42:30.166Z,64.78
2019-03-13T12:48:17.015Z,65.40
2019-03-13T12:51:05.194Z,66.30
2019-03-13T12:53:53.522Z,66.52
2019-03-13T12:57:00.885Z,66.75
2019-03-13T12:59:52.474Z,66.83
2019-03-13T13:02:40.766Z,66.98
2019-03-13T13:05:29.143Z,67.22
2019-03-13T13:08:17.550Z,67.40
2019-03-13T13:11:06.306Z,67.86
2019-03-13T13:13:54.758Z,68.32
2019-03-13T13:16:32.570Z,68.30
2019-03-13T13:21:37.122Z,68.94
2019-03-13T13:24:09.859Z,69.02
2019-03-13T13:29:29.517Z,69.73
2019-03-13T13:31:59.064Z,70.11
2019-03-13T13:34:28.585Z,70.42
2019-03-13T13:36:58.256Z,70.42
2019-03-13T13:39:27.806Z,70.36
2019-03-13T13:41:57.436Z,70.31
2019-03-13T13:47:27.172Z,69.88
2019-03-13T13:50:00.207Z,69.45
2019-03-13T13:52:29.830Z,69.00
2019-03-13T13:54:59.338Z,69.46
2019-03-13T13:57:28.927Z,69.57
2019-03-13T13:59:59.403Z,70.21
2019-03-13T14:05:10.477Z,70.06
2019-03-13T14:07:39.948Z,70.40
2019-03-13T14:10:10.371Z,70.32
2019-03-13T14:12:39.880Z,70.69
2019-03-13T14:15:11.782Z,70.46
2019-03-13T14:20:23.008Z,69.34
2019-03-13T14:23:04.379Z,69.00
2019-03-13T14:25:34.085Z,67.53
2019-03-13T14:28:03.505Z,67.75
2019-03-13T14:30:33.073Z,67.64
2019-03-13T14:33:02.715Z,67.86
2019-03-13T14:35:32.099Z,68.23
2019-03-13T14:38:01.471Z,68.37
2019-03-13T14:40:30.980Z,68.03
2019-03-13T14:43:00.401Z,67.94
2019-03-13T14:48:05.436Z,68.49
2019-03-13T14:50:46.664Z,68.53
2019-03-13T14:53:16.269Z,68.94
2019-03-13T14:55:45.714Z,69.19
2019-03-13T14:58:15.215Z,69.37
2019-03-13T15:01:23.881Z,69.71
2019-03-13T15:03:53.399Z,69.43
2019-03-13T15:06:22.990Z,68.98
2019-03-13T15:08:52.413Z,68.95
2019-03-13T15:11:21.860Z,68.81
2019-03-13T15:13:51.378Z,68.84
2019-03-13T15:16:20.766Z,68.98
2019-03-13T15:18:50.284Z,69.15
2019-03-13T15:21:43.580Z,69.50
2019-03-13T15:24:13.419Z,69.41
2019-03-13T15:26:43.258Z,69.62
2019-03-13T15:29:12.707Z,69.97
2019-03-13T15:31:42.294Z,69.81
2019-03-13T15:34:11.784Z,69.78
2019-03-13T15:39:29.780Z,70.28
2019-03-13T15:41:59.248Z,70.18
2019-03-13T15:44:28.653Z,70.51
2019-03-13T15:46:58.383Z,70.69
2019-03-13T15:49:27.804Z,70.94
2019-03-13T15:52:10.172Z,70.98
2019-03-13T15:57:33.141Z,71.22
2019-03-13T16:03:04.377Z,71.46
2019-03-13T16:05:33.772Z,71.72
2019-03-13T16:08:06.585Z,72.02
2019-03-13T16:10:36.045Z,72.17
2019-03-13T16:13:06.166Z,72.45
2019-03-13T16:18:26.986Z,72.98
2019-03-13T16:20:56.468Z,73.26
2019-03-13T16:23:25.898Z,73.44
2019-03-13T16:25:55.558Z,73.62
2019-03-13T16:28:25.118Z,73.74
2019-03-13T16:30:55.171Z,73.76
2019-03-13T16:33:24.821Z,73.91
2019-03-13T16:35:54.640Z,74.02
2019-03-13T16:38:24.171Z,74.10
2019-03-13T16:40:53.620Z,74.21
2019-03-13T16:43:23.029Z,74.33
2019-03-13T16:45:52.423Z,74.54
2019-03-13T16:50:57.220Z,75.16
2019-03-13T16:53:26.645Z,75.52
2019-03-13T16:55:56.132Z,75.74
2019-03-13T16:58:25.516Z,75.91
2019-03-13T17:00:55.396Z,76.09
2019-03-13T17:03:24.945Z,76.18
2019-03-13T17:05:54.361Z,76.33
2019-03-13T17:08:23.928Z,76.50
2019-03-13T17:10:53.377Z,76.67
2019-03-13T17:13:22.839Z,76.89
2019-03-13T17:15:52.345Z,77.24
2019-03-13T17:18:40.995Z,77.48
2019-03-13T17:21:30.434Z,77.82
2019-03-13T17:24:00.222Z,78.01
2019-03-13T17:26:31.418Z,78.11
2019-03-13T17:29:03.184Z,78.03
2019-03-13T17:31:51.654Z,78.03
2019-03-13T17:36:56.063Z,78.01
2019-03-13T17:39:25.568Z,78.14
2019-03-13T17:42:07.473Z,78.17
2019-03-13T17:44:36.947Z,78.24
2019-03-13T17:47:06.965Z,78.33
2019-03-13T17:49:36.383Z,78.62
2019-03-13T17:52:05.880Z,78.63
2019-03-13T17:54:35.301Z,78.82
2019-03-13T17:57:04.721Z,78.99
2019-03-13T17:59:34.151Z,79.37
2019-03-13T18:02:03.864Z,79.57
2019-03-13T18:04:33.222Z,80.11
2019-03-13T18:07:03.177Z,80.63
2019-03-13T18:09:51.436Z,81.03
2019-03-13T18:12:21.025Z,80.94
2019-03-13T18:14:50.429Z,81.00
2019-03-13T18:17:20.357Z,81.09
2019-03-13T18:19:50.302Z,81.00
2019-03-13T18:22:21.764Z,81.06
2019-03-13T18:24:51.236Z,80.91
2019-03-13T18:27:20.670Z,80.83
2019-03-13T18:29:50.063Z,80.90
2019-03-13T18:32:19.517Z,81.22
2019-03-13T18:34:48.905Z,81.37
2019-03-13T18:37:18.320Z,81.67
2019-03-13T18:39:47.782Z,82.19
2019-03-13T18:42:17.225Z,82.47
2019-03-13T18:45:15.919Z,82.74
2019-03-13T18:47:56.868Z,83.04
2019-03-13T18:53:22.028Z,83.41
2019-03-13T18:55:51.519Z,83.69
2019-03-13T18:58:20.903Z,83.73
2019-03-13T19:00:50.428Z,83.76
2019-03-13T19:03:19.911Z,83.82
2019-03-13T19:05:49.415Z,83.93
2019-03-13T19:08:18.832Z,84.06
2019-03-13T19:10:48.211Z,84.15
2019-03-13T19:13:17.674Z,84.30
2019-03-13T19:16:15.493Z,84.49
2019-03-13T19:18:45.249Z,84.63
2019-03-13T19:24:09.404Z,84.58
2019-03-13T19:26:38.887Z,84.58
2019-03-13T19:29:08.716Z,85.19
2019-03-13T19:31:38.078Z,85.56
2019-03-13T19:34:07.519Z,85.71
2019-03-13T19:36:36.916Z,85.62
2019-03-13T19:39:07.271Z,85.62
2019-03-13T19:41:55.791Z,85.59
2019-03-13T19:44:36.847Z,85.47
2019-03-13T19:47:06.333Z,85.19
2019-03-13T19:49:35.704Z,84.83
2019-03-13T19:52:05.140Z,84.69
2019-03-13T19:54:34.593Z,84.52
2019-03-13T19:57:04.044Z,84.43
2019-03-13T19:59:36.790Z,84.44
2019-03-13T20:02:05.055Z,84.58
2019-03-13T20:04:46.637Z,84.62
2019-03-13T20:07:05.597Z,84.76
2019-03-13T20:09:35.230Z,84.87
2019-03-13T20:12:24.144Z,84.99
2019-03-13T20:15:04.810Z,84.60
2019-03-13T20:17:35.024Z,84.36
2019-03-13T20:20:04.743Z,84.29
2019-03-13T20:22:36.766Z,84.25
2019-03-13T20:25:06.667Z,84.21
2019-03-13T20:27:36.043Z,84.28
2019-03-13T20:30:05.811Z,84.36
2019-03-13T20:32:35.811Z,84.40
2019-03-13T20:35:05.401Z,84.17
2019-03-13T20:40:42.036Z,83.97
2019-03-13T20:45:35.787Z,83.66
2019-03-13T20:48:05.370Z,83.52
2019-03-13T20:50:37.833Z,83.54
2019-03-13T20:56:20.513Z,83.52
2019-03-13T21:01:31.615Z,83.55
2019-03-13T21:04:12.283Z,83.60
2019-03-13T21:06:53.583Z,83.66
2019-03-13T21:09:26.588Z,83.81
2019-03-13T21:11:56.215Z,83.80
2019-03-13T21:14:46.046Z,83.94
2019-03-13T21:17:15.462Z,84.26
2019-03-13T21:19:45.262Z,84.24
2019-03-13T21:22:14.802Z,84.43
2019-03-13T21:24:44.368Z,84.43
2019-03-13T21:27:13.880Z,84.42
2019-03-13T21:30:02.465Z,84.46
2019-03-13T21:32:32.837Z,84.50
2019-03-13T21:35:02.253Z,84.51
2019-03-13T21:37:33.356Z,84.52
2019-03-13T21:40:02.776Z,84.46
2019-03-13T21:42:33.061Z,84.30
2019-03-13T21:45:05.009Z,84.51
2019-03-13T21:47:34.508Z,84.57
2019-03-13T21:50:04.111Z,84.78
2019-03-13T21:52:33.517Z,84.76
2019-03-13T21:55:03.086Z,84.92
2019-03-13T21:57:32.888Z,84.89
2019-03-13T22:00:22.945Z,85.00
2019-03-13T22:03:03.855Z,84.99
2019-03-13T22:05:33.527Z,84.90
2019-03-13T22:08:02.983Z,84.86
2019-03-13T22:10:32.495Z,84.86
2019-03-13T22:13:01.981Z,84.92
2019-03-13T22:15:31.666Z,84.99
2019-03-13T22:18:20.014Z,85.11
2019-03-13T22:26:18.356Z,85.56
2019-03-13T22:28:47.850Z,85.73
2019-03-13T22:31:17.241Z,85.81
2019-03-13T22:33:46.654Z,85.93
2019-03-13T22:36:16.196Z,85.97
2019-03-13T22:38:45.619Z,86.03
2019-03-13T22:41:15.020Z,85.93
2019-03-13T22:43:47.300Z,85.72
2019-03-13T22:46:16.684Z,85.38
2019-03-13T22:48:57.669Z,85.42
2019-03-13T22:51:17.939Z,85.17
2019-03-13T22:53:47.456Z,85.06
2019-03-13T22:56:16.919Z,85.21
2019-03-13T22:58:46.370Z,85.25
2019-03-13T23:01:17.771Z,85.17
2019-03-13T23:03:59.039Z,85.15
2019-03-13T23:09:26.469Z,85.00
2019-03-13T23:11:56.008Z,84.83
2019-03-13T23:14:25.680Z,84.80
2019-03-13T23:16:55.155Z,84.68
2019-03-13T23:19:43.514Z,84.59
2019-03-13T23:22:13.436Z,84.67
2019-03-13T23:27:57.382Z,84.70
2019-03-13T23:30:26.772Z,84.74
2019-03-13T23:32:56.285Z,84.98
2019-03-13T23:35:25.811Z,85.07
2019-03-13T23:37:55.236Z,85.15
2019-03-13T23:40:24.854Z,85.06
2019-03-13T23:42:54.330Z,85.14
2019-03-13T23:45:23.936Z,85.24
2019-03-13T23:47:53.499Z,85.24
2019-03-13T23:50:23.177Z,85.21
2019-03-13T23:52:52.707Z,85.14
2019-03-13T23:55:23.015Z,85.10
2019-03-13T23:57:52.534Z,85.22
